Racecast

Alex Gatling

Virginia Beach Flames (VA) · 5 · Compare head to head

Athlete rating
Races 97
Seasons 4 2008 — 2026
Speed rating — all races

Cross Country

XC speed rating

2008 XC

FranklinMS · Grade 2015

Date Meet Event Result Place Rating Difficulty PR/SR Flags
2009-05-30 Long Beach MIddle School Cross Country Meet 3219m 14:56 143rd · 1st on team ★PR ★CR SR CSR

Track & Field

TF speed rating

2026 TF

Virginia Beach Flames (VA) · Grade 5

Date Meet Event Result Place Rating Difficulty PR/SR Flags
2025-12-20 2025 Howard White Holiday Track Classic 200m 30.3 5th · 1st on team -0.024
2025-12-20 2025 Howard White Holiday Track Classic 55m 8.51 12th · 7th on team -0.024 SR
2025-12-06 Coach Miami Presents the Virginia Beast Invitational 200m 31.18 8th · 3rd on team -0.036
2025-12-06 Coach Miami Presents the Virginia Beast Invitational 60m 9.27 16th · 5th on team -0.036 SR
2025-08-02 AAU Junior Olympic Games 200m 30.05 91st · 2nd on team -0.032 SR
2025-08-02 AAU Junior Olympic Games 100m 14.12 65th · 1st on team -0.032 SR

2025 TF

Virginia Beach Flames (VA) · Grade 10

Date Meet Event Result Place Rating Difficulty PR/SR Flags
2025-07-12 Cannonball Cooper Invite 100m 14.57 8th · 2nd on team -0.027
2025-06-25 AAU Track & Field Region 5 Qualifier 100m 14.03 1st · 1st on team -0.034 ★PR SR
2025-06-25 AAU Track & Field Region 5 Qualifier 200m 29.6 9th · 4th on team -0.034 PR SR
2025-06-25 AAU Track & Field Region 5 Qualifier 200m 29.54 8th · 3rd on team -0.034 ★PR SR
2025-06-25 AAU Track & Field Region 5 Qualifier 100m 14.1 2nd · 2nd on team -0.034
2025-06-14 AAU Virginia District Qualifier (Southern) 100m 14.24 1st · 1st on team -0.041
2025-06-14 AAU Virginia District Qualifier (Southern) 200m 30.08 5th · 2nd on team -0.041 PR SR
2025-05-31 Va Beach Flames Invite 100m 14.84 12th · 2nd on team -0.023
2025-05-31 Va Beach Flames Invite 200m 30.18 5th · 2nd on team -0.023 SR
2025-05-31 Va Beach Flames Invite 100m 15.09 18th · 4th on team -0.023
2025-05-25 HR Hurricanes CAT 5 Invite 100m 14.69 8th · 2nd on team -0.035
2025-05-25 HR Hurricanes CAT 5 Invite 200m 31.19 7th · 3rd on team -0.035
2025-05-25 HR Hurricanes CAT 5 Invite 100m 14.83 12th · 4th on team -0.035
2025-05-10 Legends Invitational hosted by Eastend Lightning 200m 32.4 13th · 3rd on team -0.030
2025-05-10 Legends Invitational hosted by Eastend Lightning 100m 14.23 3rd · 1st on team -0.030 PR SR
2025-05-04 Queen Harrison Youth Invite 100m 14.97 3rd · 1st on team -0.033
2025-05-04 Queen Harrison Youth Invite 200m 31.27 5th · 3rd on team -0.033
2025-04-27 TRACK 757 Classic 200m 30.89 6th · 3rd on team -0.029
2025-04-27 TRACK 757 Classic 100m 14.7 10th · 2nd on team -0.029
2025-04-27 TRACK 757 Classic 100m 14.71 11th · 3rd on team -0.029
2025-04-19 20th Annual Bring the Heat Invitational 100m 14.35 5th · 2nd on team -0.032
2025-04-19 20th Annual Bring the Heat Invitational 200m 30.59 17th · 5th on team -0.032
2025-03-07 AAU Indoor National Championships 200m 30.36 23rd · 2nd on team -0.036
2025-03-07 AAU Indoor National Championships 60m 8.96 18th · 1st on team -0.036 ★PR SR
2025-02-22 BWSP Queens and Kings Championships 55m 8.25 6th · 2nd on team -0.014 PR SR
2025-02-22 BWSP Queens and Kings Championships 200m 30.28 2nd · 1st on team -0.014 SR
2025-02-22 BWSP Queens and Kings Championships 55m 8.24 5th · 1st on team -0.014 ★PR SR
2025-02-16 HRH Winter Storm Classic 55m 8.34 3rd · 2nd on team -0.014 PR SR
2025-02-16 HRH Winter Storm Classic 55m 8.39 6th · 4th on team -0.014
2025-02-16 HRH Winter Storm Classic 200m 30.86 4th · 4th on team -0.014
2025-02-02 Track757 Invite 60m 9.17 11th · 3rd on team -0.036 PR SR
2025-02-02 Track757 Invite 200m 31.93 8th · 4th on team -0.036
2025-02-02 Track757 Invite 60m 9.13 8th · 2nd on team -0.036 PR SR
2025-01-18 BWSP Queens and Kings - Meet 2 55m 8.45 7th · 4th on team -0.014
2025-01-18 BWSP Queens and Kings - Meet 2 200m 31.07 3rd · 1st on team -0.014
2025-01-18 BWSP Queens and Kings - Meet 2 55m 8.4 4th · 1st on team -0.014
2025-01-04 BWSP Queens and Kings - Meet 1 55m 8.51 9th · 2nd on team -0.024 PR SR
2025-01-04 BWSP Queens and Kings - Meet 1 55m 8.39 5th · 1st on team -0.024 PR SR
2025-01-04 BWSP Queens and Kings - Meet 1 200m 30.95 4th · 2nd on team -0.024
2024-12-08 Coach Miami Presents the Virginia Beast Invitational 60m 9.29 22nd · 6th on team -0.036 PR SR
2024-12-08 Coach Miami Presents the Virginia Beast Invitational 60m 9.21 16th · 5th on team -0.036 PR SR
2024-12-08 Coach Miami Presents the Virginia Beast Invitational 200m 31.3 12th · 3rd on team -0.036
2024-08-03 AAU Junior Olympic Games 200m 30.38 57th · 1st on team -0.039 SR
2024-08-03 AAU Junior Olympic Games 100m 14.25 41st · 1st on team -0.039 PR SR
2024-08-03 AAU Junior Olympic Games 100m 14.74 67th · 2nd on team -0.039
2024-08-03 AAU Junior Olympic Games 200m 30.39 58th · 2nd on team -0.039

2024 TF

Virginia Beach Flames (VA) · Grade 9

Date Meet Event Result Place Rating Difficulty PR/SR Flags
2024-06-29 AAU Region 05 National Qualifier lj 10-09.50 -0.034
2024-06-29 AAU Region 05 National Qualifier 100m 14.71 4th · 2nd on team -0.034 PR SR
2024-06-29 AAU Region 05 National Qualifier 200m 30.61 5th · 2nd on team -0.034
2024-06-29 AAU Region 05 National Qualifier 100m 14.63 3rd · 1st on team -0.034 PR SR
2024-06-29 AAU Region 05 National Qualifier 200m 30.24 2nd · 1st on team -0.034
2024-06-08 AAU Virginia South District Qualifier lj 9-01.25 -0.029
2024-06-08 AAU Virginia South District Qualifier 100m 14.79 3rd · 1st on team -0.029 PR SR
2024-06-08 AAU Virginia South District Qualifier 200m 30.14 2nd · 1st on team -0.029 PR SR
2024-06-01 VB Flames Invitational lj ND -0.023
2024-06-01 VB Flames Invitational 100m 15.1 16th · 4th on team -0.023 PR SR
2024-06-01 VB Flames Invitational 100m 14.93 12th · 3rd on team -0.023 PR SR
2024-06-01 VB Flames Invitational 200m 31.51 11th · 3rd on team -0.023 PR SR
2024-05-11 2024 EE Lightning "Legends" Invite lj 9-11.00 -0.043
2024-05-11 2024 EE Lightning "Legends" Invite 100m 15.37 13th · 2nd on team -0.043
2024-05-11 2024 EE Lightning "Legends" Invite 200m 31.84 10th · 3rd on team -0.043 PR SR
2024-05-05 Queen Harrison Invite lj 9-10.00 -0.033
2024-05-05 Queen Harrison Invite 100m 15.12 5th · 2nd on team -0.033 PR SR
2024-05-05 Queen Harrison Invite 200m 32.67 7th · 4th on team -0.033
2024-03-03 AAU Indoor National Champonships 200m 32.05 26th · 1st on team -0.036 PR SR
2024-03-03 AAU Indoor National Champonships 400m 1:23.57 34th · 1st on team -0.036
2024-03-03 AAU Indoor National Champonships 60m 9.43 20th · 1st on team -0.036 PR SR
2024-02-24 BWSP Queens and Kings: Meet 4 55m 8.84 13th · 6th on team -0.024 PR SR
2024-02-24 BWSP Queens and Kings: Meet 4 200m 32.78 7th · 2nd on team -0.024 PR SR
2024-02-24 BWSP Queens and Kings: Meet 4 400m 1:20.99 10th · 3rd on team -0.024 ★PR SR
2024-02-24 BWSP Queens and Kings: Meet 4 55m 8.78 11th · 5th on team -0.024 PR SR
2024-02-18 HRH Winter Storm Classic 200m 33 9th · 2nd on team -0.024
2024-02-18 HRH Winter Storm Classic 55m 9.24 15th · 5th on team -0.024
2024-02-03 BWSP Queens and Kings 55m 9.12 16th · 6th on team -0.014
2024-02-03 BWSP Queens and Kings 200m 32.84 6th · 3rd on team -0.014 PR SR
2024-01-28 2024 Track757 Indoor Invitational 60m 9.73 22nd · 5th on team -0.036
2024-01-28 2024 Track757 Indoor Invitational 200m 34.31 26th · 3rd on team -0.036
2024-01-20 BWSP Queens and Kings 55m 9.48 23rd · 5th on team -0.014
2024-01-20 BWSP Queens and Kings 400m 1:35.51 26th · 5th on team -0.014
2024-01-06 BWSP Queens and Kings 200m 33.71 13th · 3rd on team -0.024 PR SR
2024-01-06 BWSP Queens and Kings 400m 1:27.05 25th · 4th on team -0.024
2024-01-06 BWSP Queens and Kings 55m 8.9 19th · 4th on team -0.024
2023-12-17 2023 Grant Holloway AAU Invitational 400m 1:22.89 13th · 1st on team -0.036
2023-12-17 2023 Grant Holloway AAU Invitational 60m 9.9 20th · 2nd on team -0.036 PR SR
2023-12-17 2023 Grant Holloway AAU Invitational 60m 9.62 14th · 1st on team -0.036 PR SR
2023-12-17 2023 Grant Holloway AAU Invitational 200m 34.37 13th · 1st on team -0.036 PR SR
2023-12-02 The Virginia Beast HS Invitational 55m 8.96 3rd · 2nd on team -0.036 PR SR
2023-12-02 The Virginia Beast HS Invitational 400m 1:22.68 1st · 1st on team -0.036 PR SR
2023-12-02 The Virginia Beast HS Invitational 200m 34.91 8th · 2nd on team -0.036 PR SR
2023-12-02 The Virginia Beast HS Invitational 55m 8.85 1st · 1st on team -0.036 PR SR